Terminal Aerodrome Forecast
Issued by NWS

Home | Current Version | Previous Version | Text Only | Print | Product List | Glossary On
Versions: 1 2 3 4 5 6 7 8 9 10 11 12 13 14 15 16 17 18 19
267
FTUS46 KMFR 251342 AAA
TAFOTH
TAF AMD
KOTH 251342Z 2514/2612 35006KT 5SM BR OVC006
     FM251600 35011G16KT P6SM OVC012
     FM252000 35018G25KT P6SM BKN015
     FM260400 36012G18KT 4SM BR OVC012=

USA.gov is the U.S. government's official web portal to all federal, state and local government web resources and services.